Time;durP1;ratioP1;P1;durP2;ratioP2;P2;SDS_P1;SDS_P2;PMS_P1;PMS_P2;Temp;Humidity;BMP_temperature;BMP_pressure;BME280_temperature;BME280_humidity;BME280_pressure;Samples;Min_cycle;Max_cycle;Signal;HPM_P1;HPM_P2
2022/02/27 00:00:41;;;;;;;13.05;5.10;;;;;;;1.86;69.48;101009.88;5137070;27;20100;-71
2022/02/27 00:03:10;;;;;;;13.30;5.68;;;;;;;1.91;69.43;101016.03;5136950;27;20073;-71
2022/02/27 00:05:39;;;;;;;15.43;6.20;;;;;;;1.86;68.71;101012.41;5137143;27;20027;-71
2022/02/27 00:08:10;;;;;;;14.95;5.40;;;;;;;1.77;68.61;101005.22;5135709;27;20130;-71
2022/02/27 00:10:39;;;;;;;11.38;6.18;;;;;;;1.73;68.76;101015.00;5136697;27;20043;-71
2022/02/27 00:13:08;;;;;;;15.13;5.87;;;;;;;1.73;69.26;101008.34;5137051;27;20074;-71
2022/02/27 00:15:39;;;;;;;13.50;5.85;;;;;;;1.79;68.51;101011.22;5136892;27;20272;-71
2022/02/27 00:18:08;;;;;;;12.75;6.10;;;;;;;1.77;68.66;101011.91;5136997;27;20047;-71
2022/02/27 00:20:39;;;;;;;13.45;5.68;;;;;;;1.73;69.04;101007.47;5136919;27;20046;-71
2022/02/27 00:23:08;;;;;;;15.80;6.07;;;;;;;1.71;68.95;101009.91;5137184;27;20095;-71
2022/02/27 00:25:37;;;;;;;11.80;5.50;;;;;;;1.70;68.70;101012.34;5134970;27;20039;-71
2022/02/27 00:28:07;;;;;;;17.35;6.25;;;;;;;1.75;68.56;101010.97;5136759;27;20047;-71
2022/02/27 00:30:38;;;;;;;12.80;6.70;;;;;;;1.62;68.52;101014.44;5136785;27;20043;-71
2022/02/27 00:33:07;;;;;;;12.25;5.68;;;;;;;1.46;68.38;101010.97;5136409;27;20078;-71
2022/02/27 00:35:37;;;;;;;12.15;5.70;;;;;;;1.30;69.08;101010.09;5136458;27;20050;-70
2022/02/27 00:38:06;;;;;;;12.10;6.00;;;;;;;1.28;69.47;101010.78;5136262;27;20050;-71
2022/02/27 00:40:35;;;;;;;14.77;6.47;;;;;;;1.19;69.64;100987.63;5136562;27;20057;-71
2022/02/27 00:43:04;;;;;;;14.70;5.88;;;;;;;1.37;69.21;101012.97;5136015;27;20089;-71
2022/02/27 00:45:33;;;;;;;19.03;6.37;;;;;;;1.26;69.65;101013.22;5118017;27;20137;-71
2022/02/27 00:48:04;;;;;;;13.95;5.80;;;;;;;1.15;69.81;101010.88;5136068;27;20366;-71
2022/02/27 00:50:33;;;;;;;13.20;6.75;;;;;;;1.05;70.08;101011.09;5136269;27;20506;-71
2022/02/27 00:53:02;;;;;;;14.95;6.35;;;;;;;1.00;70.29;101015.00;5135081;27;20039;-71
2022/02/27 00:55:32;;;;;;;14.68;6.30;;;;;;;1.07;70.43;101015.44;5135923;27;20051;-71
2022/02/27 00:58:01;;;;;;;15.05;5.75;;;;;;;1.01;69.87;101014.22;5135018;27;20054;-71
2022/02/27 01:00:30;;;;;;;12.50;6.18;;;;;;;1.03;70.25;101013.50;5136111;27;20043;-70
2022/02/27 01:02:59;;;;;;;15.60;6.20;;;;;;;0.86;70.60;100995.75;5135804;27;20484;-70
2022/02/27 01:05:30;;;;;;;15.38;5.43;;;;;;;0.91;70.27;101011.94;5135715;27;20085;-70
2022/02/27 01:07:59;;;;;;;16.50;6.07;;;;;;;0.92;70.58;101009.50;5135944;27;20062;-70
2022/02/27 01:10:31;;;;;;;15.38;6.15;;;;;;;0.86;70.75;101019.22;5134373;27;20073;-70
2022/02/27 01:13:00;;;;;;;14.18;6.57;;;;;;;0.79;70.73;101014.63;5134369;27;20047;-70
2022/02/27 01:15:31;;;;;;;13.98;5.93;;;;;;;0.87;70.80;101015.03;5134724;27;20043;-70
2022/02/27 01:18:00;;;;;;;;;;;;;;;0.80;70.82;101008.78;5134573;27;20053;-71
2022/02/27 01:20:33;;;;;;;12.70;5.13;;;;;;;0.71;70.82;101018.31;5135776;27;20326;-70
2022/02/27 01:23:03;;;;;;;11.38;5.38;;;;;;;0.56;70.94;101013.22;5117480;27;20057;-70
2022/02/27 01:25:36;;;;;;;13.13;6.25;;;;;;;0.60;71.14;101019.31;5134167;27;20096;-70
2022/02/27 01:28:05;;;;;;;15.93;6.60;;;;;;;0.50;71.23;101012.00;5135558;27;20036;-70
2022/02/27 01:30:34;;;;;;;17.02;6.68;;;;;;;0.59;71.12;101012.53;5133977;27;20043;-70
2022/02/27 01:33:03;;;;;;;12.40;5.28;;;;;;;0.47;71.29;101021.84;5135268;27;20039;-70
2022/02/27 01:35:37;;;;;;;13.35;5.88;;;;;;;0.44;71.17;101026.69;5134781;27;20074;-70
2022/02/27 01:38:07;;;;;;;14.82;5.72;;;;;;;0.48;71.46;101026.13;5134696;27;20050;-70
2022/02/27 01:40:38;;;;;;;15.35;5.93;;;;;;;0.40;71.03;101029.78;5135088;27;20096;-70
2022/02/27 01:43:07;;;;;;;13.70;5.60;;;;;;;0.40;71.32;101030.66;5134858;27;20489;-70
2022/02/27 01:45:39;;;;;;;13.27;5.97;;;;;;;0.41;71.19;101031.50;5134324;27;20047;-69
2022/02/27 01:48:08;;;;;;;13.98;6.13;;;;;;;0.44;71.56;101026.69;5134176;27;20084;-70
2022/02/27 01:50:39;;;;;;;16.27;7.05;;;;;;;0.59;71.09;101027.63;5134849;27;20043;-70
2022/02/27 01:53:08;;;;;;;13.13;6.00;;;;;;;0.68;70.86;101028.16;5134935;27;20396;-70
2022/02/27 01:55:37;;;;;;;19.63;6.97;;;;;;;0.80;70.45;101026.38;5134836;27;20032;-70
2022/02/27 01:58:05;;;;;;;13.17;6.10;;;;;;;0.86;70.49;101024.25;5133899;27;20043;-70
2022/02/27 02:00:34;;;;;;;16.67;7.57;;;;;;;0.82;70.74;101018.91;5133597;27;20126;-70
2022/02/27 02:03:03;;;;;;;13.85;6.85;;;;;;;0.77;70.50;101033.72;5133548;27;20042;-69
2022/02/27 02:05:33;;;;;;;13.77;6.28;;;;;;;0.83;70.65;101034.13;5133832;27;20035;-69
2022/02/27 02:08:04;;;;;;;14.52;6.63;;;;;;;0.65;70.43;101022.94;5134609;27;20066;-69
2022/02/27 02:10:34;;;;;;;15.68;6.45;;;;;;;0.68;70.29;101033.19;5134547;27;20400;-70
2022/02/27 02:13:06;;;;;;;15.85;6.40;;;;;;;0.62;70.57;101032.84;5133461;27;20051;-69
2022/02/27 02:15:35;;;;;;;14.60;6.13;;;;;;;0.60;70.26;101025.19;5133437;27;20031;-70
2022/02/27 02:18:07;;;;;;;;;;;;;;;0.66;70.78;101039.78;5133751;28;20050;-70
2022/02/27 02:20:38;;;;;;;14.38;6.60;;;;;;;0.65;70.63;101033.00;5133422;28;19919;-70
2022/02/27 02:23:07;;;;;;;13.85;6.43;;;;;;;0.64;70.92;101033.78;5133317;28;20054;-69
2022/02/27 02:25:37;;;;;;;15.32;6.55;;;;;;;0.65;70.34;101040.53;5134534;27;20066;-69
2022/02/27 02:28:07;;;;;;;15.98;6.10;;;;;;;0.71;70.37;101028.34;5134463;27;20078;-69
2022/02/27 02:30:36;;;;;;;14.45;6.60;;;;;;;0.62;70.11;101037.84;5133378;28;20170;-69
2022/02/27 02:33:05;;;;;;;17.65;6.47;;;;;;;0.56;70.86;101040.84;5133513;28;20493;-69
2022/02/27 02:35:34;;;;;;;13.68;6.18;;;;;;;0.57;70.57;101039.22;5134428;27;20548;-70
2022/02/27 02:38:06;;;;;;;16.02;6.82;;;;;;;0.55;70.72;101041.63;5133175;28;20063;-70
2022/02/27 02:40:35;;;;;;;15.27;5.93;;;;;;;0.50;70.57;101037.13;5133484;28;20092;-70
2022/02/27 02:43:05;;;;;;;;;;;;;;;0.48;70.95;101039.50;5083585;28;20039;-69
2022/02/27 02:45:35;;;;;;;;;;;;;;;0.52;70.54;101045.59;5134758;27;19919;-69
2022/02/27 02:48:06;;;;;;;14.70;5.53;;;;;;;0.51;70.70;101034.69;5134935;27;20276;-69
2022/02/27 02:50:36;;;;;;;;;;;;;;;0.40;70.97;101038.19;5137369;27;20047;-70
2022/02/27 02:53:06;;;;;;;16.33;6.18;;;;;;;0.34;70.66;101040.31;5137186;27;19920;-69
2022/02/27 02:55:37;;;;;;;18.85;6.70;;;;;;;0.37;70.84;101044.66;5137194;27;20489;-70
2022/02/27 02:58:06;;;;;;;17.33;6.47;;;;;;;0.39;70.85;101040.59;5138257;27;20081;-69
2022/02/27 03:00:35;;;;;;;13.25;6.13;;;;;;;0.10;71.24;101035.44;5138679;27;20358;-69
2022/02/27 03:03:05;;;;;;;14.05;6.47;;;;;;;-0.15;71.50;101041.44;5137255;27;20039;-69
2022/02/27 03:05:34;;;;;;;15.75;6.32;;;;;;;-0.12;71.64;101038.25;5138403;27;20110;-69
2022/02/27 03:08:03;;;;;;;13.17;6.40;;;;;;;-0.21;71.78;101046.03;5137121;27;20042;-69
2022/02/27 03:10:33;;;;;;;20.10;7.05;;;;;;;0.05;71.43;101049.34;5137804;27;20043;-69
2022/02/27 03:13:04;;;;;;;13.90;6.32;;;;;;;0.09;71.45;101041.22;5138360;27;20039;-70
2022/02/27 03:15:33;;;;;;;17.58;6.55;;;;;;;0.15;71.52;101044.09;5138154;27;20043;-70
2022/02/27 03:18:02;;;;;;;13.47;5.90;;;;;;;0.05;71.56;101044.31;5138426;27;20063;-69
2022/02/27 03:20:30;;;;;;;16.73;6.73;;;;;;;-0.05;71.40;101053.75;5137751;27;20055;-69
2022/02/27 03:23:00;;;;;;;16.50;6.20;;;;;;;0.00;72.04;101036.50;5138038;27;20097;-70
2022/02/27 03:25:29;;;;;;;;;;;;;;;0.11;71.61;101049.72;5138413;27;20055;-69
2022/02/27 03:27:59;;;;;;;16.52;5.35;;;;;;;0.15;71.51;101041.59;5136420;27;19972;-70
2022/02/27 03:30:28;;;;;;;15.75;6.53;;;;;;;0.10;71.48;101048.00;5137829;27;20043;-70
2022/02/27 03:32:58;;;;;;;17.17;6.38;;;;;;;0.19;71.45;101046.06;5137582;27;20035;-69
2022/02/27 03:35:27;;;;;;;16.42;6.32;;;;;;;0.19;71.54;101044.41;5137819;27;20040;-69
2022/02/27 03:37:56;;;;;;;13.43;5.93;;;;;;;0.25;71.49;101053.94;5137439;27;20062;-70
2022/02/27 03:40:25;;;;;;;18.73;6.83;;;;;;;0.29;71.72;101060.91;5137380;27;20324;-70
2022/02/27 03:42:55;;;;;;;12.43;5.93;;;;;;;0.29;71.51;101054.22;5137192;27;20291;-70
2022/02/27 03:45:25;;;;;;;13.33;4.77;;;;;;;0.21;71.20;101057.94;5137651;27;20047;-70
2022/02/27 03:47:55;;;;;;;19.45;8.60;;;;;;;0.15;71.82;101044.09;5137572;27;20264;-69
2022/02/27 03:50:24;;;;;;;21.58;9.32;;;;;;;0.23;71.77;101063.03;5137414;27;20094;-69
2022/02/27 03:52:53;;;;;;;17.92;7.25;;;;;;;0.22;71.79;101054.63;5137215;27;20497;-70
2022/02/27 03:55:22;;;;;;;16.92;7.93;;;;;;;0.23;71.94;101065.53;5137075;27;20035;-70
2022/02/27 03:57:51;;;;;;;18.35;7.85;;;;;;;0.23;71.74;101065.53;5137657;27;20039;-70
2022/02/27 04:00:20;;;;;;;14.55;7.32;;;;;;;0.14;71.83;101065.84;5136330;27;20088;-70
2022/02/27 04:02:50;;;;;;;15.18;6.40;;;;;;;0.28;71.64;101070.09;5137214;27;20508;-69
2022/02/27 04:05:21;;;;;;;14.40;5.57;;;;;;;0.34;71.42;101074.59;5136987;27;20146;-70
2022/02/27 04:07:50;;;;;;;14.17;6.27;;;;;;;0.33;71.35;101072.88;5136853;27;20043;-69
2022/02/27 04:10:21;;;;;;;11.95;5.30;;;;;;;0.31;71.73;101075.28;5136923;27;20122;-70
2022/02/27 04:12:50;;;;;;;11.27;5.50;;;;;;;0.14;71.65;101077.53;5136702;27;20043;-69
2022/02/27 04:15:19;;;;;;;12.50;4.80;;;;;;;0.09;71.58;101071.34;5135635;27;20047;-69
2022/02/27 04:17:50;;;;;;;16.13;6.13;;;;;;;0.20;71.60;101075.38;5135495;27;20039;-69
2022/02/27 04:20:19;;;;;;;14.65;5.72;;;;;;;0.18;71.74;101075.28;5136685;27;20043;-69
2022/02/27 04:22:47;;;;;;;14.07;5.53;;;;;;;0.22;71.50;101073.84;5136544;27;20058;-69
2022/02/27 04:25:16;;;;;;;12.50;5.07;;;;;;;0.37;71.78;101077.31;5136607;27;20150;-70
2022/02/27 04:27:45;;;;;;;13.17;6.33;;;;;;;0.28;71.54;101074.22;5136481;27;20480;-69
2022/02/27 04:30:14;;;;;;;12.53;5.53;;;;;;;0.13;71.44;101070.75;5137326;27;20414;-70
2022/02/27 04:32:43;;;;;;;15.00;6.53;;;;;;;0.10;71.65;101075.59;5136579;27;20283;-69
2022/02/27 04:35:14;;;;;;;15.27;6.53;;;;;;;0.17;71.60;101075.22;5136294;27;20039;-69
2022/02/27 04:37:43;;;;;;;20.23;6.80;;;;;;;0.24;71.79;101082.34;5136655;27;20070;-69
2022/02/27 04:40:13;;;;;;;16.17;7.15;;;;;;;0.30;71.81;101082.72;5136250;27;20047;-69
2022/02/27 04:42:42;;;;;;;16.65;6.65;;;;;;;0.26;71.48;101074.16;5135949;27;20500;-69
2022/02/27 04:45:11;;;;;;;13.35;4.57;;;;;;;0.28;71.49;101071.72;5136090;27;20043;-70
2022/02/27 04:47:40;;;;;;;12.20;5.75;;;;;;;0.27;71.15;101082.53;5136417;27;20134;-69
2022/02/27 04:50:09;;;;;;;15.20;5.97;;;;;;;0.26;71.71;101083.31;5134878;27;20039;-69
2022/02/27 04:52:39;;;;;;;19.15;7.13;;;;;;;0.21;71.80;101082.16;5135876;27;20031;-69
2022/02/27 04:55:09;;;;;;;14.93;6.18;;;;;;;0.20;71.65;101090.44;5136590;27;20039;-69
2022/02/27 04:57:38;;;;;;;18.98;7.00;;;;;;;0.21;71.90;101092.19;5135932;27;20070;-69
2022/02/27 05:00:09;;;;;;;15.70;7.00;;;;;;;0.29;71.87;101094.41;5135852;27;20035;-69
2022/02/27 05:02:38;;;;;;;16.17;6.57;;;;;;;0.31;71.89;101099.53;5135924;27;20093;-69
2022/02/27 05:05:08;;;;;;;13.20;6.40;;;;;;;0.40;71.91;101102.59;5135641;27;20054;-69
2022/02/27 05:07:40;;;;;;;16.35;6.15;;;;;;;0.46;71.91;101110.50;5135676;27;20051;-70
2022/02/27 05:10:10;;;;;;;11.88;5.75;;;;;;;0.49;71.75;101115.72;5135529;27;20039;-69
2022/02/27 05:12:41;;;;;;;13.88;6.60;;;;;;;0.53;72.02;101112.63;5135578;27;20047;-69
2022/02/27 05:15:11;;;;;;;14.88;7.53;;;;;;;0.54;71.65;101119.41;5135531;27;20043;-69
2022/02/27 05:17:42;;;;;;;16.42;6.55;;;;;;;0.52;72.17;101105.88;5135921;27;20395;-69
2022/02/27 05:20:12;;;;;;;11.60;4.55;;;;;;;0.61;71.78;101127.41;5135432;27;20047;-69
2022/02/27 05:22:47;;;;;;;15.73;6.00;;;;;;;0.66;71.73;101117.63;5135750;27;20050;-70
2022/02/27 05:25:19;;;;;;;15.52;6.03;;;;;;;0.63;71.63;101119.97;5135329;27;20049;-69
2022/02/27 05:27:50;;;;;;;15.40;6.18;;;;;;;0.64;71.49;101129.25;5135381;27;20043;-69
2022/02/27 05:30:20;;;;;;;14.68;6.72;;;;;;;0.60;71.42;101134.88;5135300;27;20054;-69
2022/02/27 05:32:50;;;;;;;16.63;6.32;;;;;;;0.58;71.29;101131.34;5135148;27;20507;-69
2022/02/27 05:35:19;;;;;;;11.90;5.60;;;;;;;0.47;71.61;101137.38;5134141;27;20593;-70
2022/02/27 05:37:50;;;;;;;12.00;5.18;;;;;;;0.50;71.63;101125.00;5135475;27;20073;-69
2022/02/27 05:40:19;;;;;;;12.13;5.50;;;;;;;0.40;71.36;101110.13;5135133;27;20058;-70
2022/02/27 05:42:49;;;;;;;17.02;5.53;;;;;;;0.45;71.27;101133.91;5134819;27;20083;-69
2022/02/27 05:45:18;;;;;;;12.70;6.07;;;;;;;0.49;71.37;101135.81;5134950;27;20077;-69
2022/02/27 05:47:47;;;;;;;14.82;6.60;;;;;;;0.51;71.80;101134.25;5135261;27;20039;-69
2022/02/27 05:50:16;;;;;;;10.03;4.27;;;;;;;0.37;71.38;101135.06;5135233;27;20047;-69
2022/02/27 05:52:45;;;;;;;14.20;5.73;;;;;;;0.46;71.55;101135.63;5135075;27;20480;-69
2022/02/27 05:55:15;;;;;;;14.32;6.03;;;;;;;0.41;71.24;101134.47;5133785;27;20492;-69
2022/02/27 05:57:45;;;;;;;15.10;5.93;;;;;;;0.27;71.46;101142.75;5135070;27;20480;-69
2022/02/27 06:00:14;;;;;;;11.65;5.95;;;;;;;0.17;71.47;101140.47;5135111;27;20550;-69
2022/02/27 06:02:43;;;;;;;;;;;;;;;0.26;71.77;101141.06;5135192;27;20070;-69
2022/02/27 06:05:12;;;;;;;16.30;5.85;;;;;;;0.22;71.40;101134.06;5135032;27;19926;-69
2022/02/27 06:07:41;;;;;;;10.40;5.47;;;;;;;0.21;71.76;101137.38;5135022;27;20050;-69
2022/02/27 06:10:10;;;;;;;19.43;7.07;;;;;;;0.43;71.70;101148.00;5134631;27;20043;-69
2022/02/27 06:12:47;;;;;;;16.85;7.25;;;;;;;0.47;71.35;101147.41;5134535;27;20063;-69
2022/02/27 06:15:16;;;;;;;19.65;7.35;;;;;;;0.62;71.78;101151.72;5134655;27;20531;-69
2022/02/27 06:17:45;;;;;;;14.63;6.37;;;;;;;0.62;71.59;101155.91;5135168;27;20043;-69
2022/02/27 06:20:14;;;;;;;15.33;6.73;;;;;;;0.68;71.14;101146.22;5134774;27;20438;-69
2022/02/27 06:22:44;;;;;;;15.52;7.07;;;;;;;0.65;71.07;101148.53;5134212;27;20287;-69
2022/02/27 06:25:14;;;;;;;18.25;7.25;;;;;;;0.92;70.90;101145.22;5134533;27;20054;-69
2022/02/27 06:27:45;;;;;;;17.20;6.90;;;;;;;1.20;70.92;101148.63;5134394;28;20054;-69
2022/02/27 06:30:15;;;;;;;13.95;6.50;;;;;;;1.56;70.15;101144.88;5134436;28;20051;-70
2022/02/27 06:32:47;;;;;;;12.25;6.43;;;;;;;1.97;69.33;101149.78;5134471;28;20061;-69
2022/02/27 06:35:17;;;;;;;15.07;5.85;;;;;;;2.13;68.92;101147.38;5134989;28;20450;-70
2022/02/27 06:37:46;;;;;;;14.93;5.97;;;;;;;2.24;68.44;101146.31;5134321;28;20043;-70
2022/02/27 06:40:18;;;;;;;12.38;6.22;;;;;;;2.56;68.35;101150.59;5134302;27;20046;-70
2022/02/27 06:48:42;;;;;;;15.63;7.13;;;;;;;2.97;66.59;101145.25;5132703;27;20382;-70
2022/02/27 06:51:10;;;;;;;14.50;7.47;;;;;;;3.14;66.31;101144.50;5131949;28;20048;-70
2022/02/27 06:53:40;;;;;;;16.33;7.18;;;;;;;3.26;65.45;101145.13;5131749;28;20541;-70
2022/02/27 06:56:10;;;;;;;13.73;7.35;;;;;;;3.38;64.47;101145.78;5131873;27;20050;-70
2022/02/27 06:58:39;;;;;;;16.35;7.70;;;;;;;3.57;64.65;101148.44;5131761;28;20376;-70
2022/02/27 07:01:09;;;;;;;16.42;8.13;;;;;;;3.54;63.92;101145.75;5131752;27;20046;-70
2022/02/27 07:03:38;;;;;;;;;;;;;;;3.78;63.44;101144.47;5132463;28;20138;-71
2022/02/27 07:06:08;;;;;;;14.15;7.18;;;;;;;3.81;62.76;101147.16;5131931;28;19962;-70
2022/02/27 07:08:37;;;;;;;16.33;7.53;;;;;;;3.98;62.93;101143.75;5131544;27;20048;-70
2022/02/27 07:11:06;;;;;;;15.13;7.67;;;;;;;4.11;62.48;101155.34;5131388;28;20049;-70
2022/02/27 07:13:35;;;;;;;10.73;5.50;;;;;;;4.06;62.30;101156.78;5131487;28;20307;-70
2022/02/27 07:16:04;;;;;;;18.60;7.27;;;;;;;4.05;61.94;101160.94;5131370;28;20290;-70
2022/02/27 07:18:33;;;;;;;16.15;7.13;;;;;;;4.20;62.16;101154.94;5131416;27;20129;-71
2022/02/27 07:21:02;;;;;;;12.70;7.13;;;;;;;4.28;61.14;101163.72;5131684;28;20112;-73
2022/02/27 07:23:34;;;;;;;18.85;8.20;;;;;;;4.35;61.07;101155.66;5131293;27;20054;-73
2022/02/27 07:26:03;;;;;;;20.42;8.50;;;;;;;4.53;61.31;101161.59;5131307;28;20134;-73
2022/02/27 07:28:31;;;;;;;14.80;7.40;;;;;;;4.77;60.75;101167.78;5131049;28;20500;-74
2022/02/27 07:31:00;;;;;;;19.97;7.57;;;;;;;4.92;59.82;101158.34;5131508;27;20484;-73
2022/02/27 07:33:29;;;;;;;19.13;8.57;;;;;;;5.04;60.04;101158.91;5131372;27;20485;-73
2022/02/27 07:35:58;;;;;;;16.63;8.40;;;;;;;5.07;59.73;101158.19;5131307;27;20039;-73
2022/02/27 07:38:27;;;;;;;18.75;8.82;;;;;;;4.80;59.82;101159.47;5131868;28;20280;-74
2022/02/27 07:40:58;;;;;;;16.05;6.78;;;;;;;4.89;59.92;101157.34;5131307;27;20040;-73
2022/02/27 07:43:28;;;;;;;13.55;7.18;;;;;;;5.28;59.78;101165.06;5130219;28;20138;-73
2022/02/27 07:45:56;;;;;;;15.63;7.93;;;;;;;5.08;59.10;101152.31;5130900;27;20047;-73
2022/02/27 07:48:27;;;;;;;16.50;7.22;;;;;;;5.34;58.76;101152.69;5130540;28;20058;-73
2022/02/27 07:50:55;;;;;;;;;;;;;;;5.58;58.57;101165.53;5131075;28;20485;-73
2022/02/27 07:53:27;;;;;;;15.45;7.10;;;;;;;5.48;57.54;101148.22;5131037;27;19920;-73
2022/02/27 07:55:57;;;;;;;16.27;7.17;;;;;;;5.74;57.19;101164.50;5129686;28;20099;-74
2022/02/27 07:58:28;;;;;;;15.13;7.72;;;;;;;5.86;57.09;101163.41;5125925;27;20044;-73
2022/02/27 08:00:57;;;;;;;18.45;8.00;;;;;;;5.80;57.38;101162.25;5117198;28;20054;-73
2022/02/27 08:03:27;;;;;;;15.82;8.05;;;;;;;6.15;57.19;101167.13;5117066;28;20059;-73
2022/02/27 08:05:55;;;;;;;17.27;7.70;;;;;;;5.98;56.66;101165.56;5117100;28;20089;-73
2022/02/27 08:08:30;;;;;;;18.23;8.00;;;;;;;5.80;57.01;101163.13;5116707;28;20044;-73
2022/02/27 08:11:02;;;;;;;16.55;8.00;;;;;;;5.85;55.97;101165.88;5116669;28;20131;-73
2022/02/27 08:13:32;;;;;;;15.25;7.70;;;;;;;5.79;56.86;101166.44;5115756;28;20071;-73
2022/02/27 08:16:01;;;;;;;16.50;7.63;;;;;;;5.96;56.63;101174.78;5116873;28;20042;-73
2022/02/27 08:18:31;;;;;;;17.50;8.05;;;;;;;5.95;57.04;101173.91;5116585;28;20283;-73
2022/02/27 08:21:00;;;;;;;16.48;7.90;;;;;;;5.81;56.85;101180.03;5116147;28;20120;-73
2022/02/27 08:23:29;;;;;;;17.58;7.63;;;;;;;6.26;56.66;101180.25;5116333;28;20386;-74
2022/02/27 08:25:59;;;;;;;17.40;8.63;;;;;;;6.32;56.42;101172.88;5116739;28;20067;-73
2022/02/27 08:28:31;;;;;;;14.23;8.25;;;;;;;6.36;55.92;101162.06;5115084;28;20280;-74
2022/02/27 08:31:00;;;;;;;15.43;8.55;;;;;;;6.60;55.63;101168.09;5116612;28;20069;-73
2022/02/27 08:33:29;;;;;;;17.38;8.65;;;;;;;6.83;54.75;101161.38;5116205;28;20069;-74
2022/02/27 08:35:58;;;;;;;17.02;8.60;;;;;;;6.69;54.81;101163.38;5116136;28;20031;-74
2022/02/27 08:38:28;;;;;;;13.40;7.57;;;;;;;6.79;54.77;101167.13;5116802;28;20389;-74
2022/02/27 08:40:57;;;;;;;;;;;;;;;6.79;54.27;101162.06;5116856;28;20280;-74
2022/02/27 08:43:26;;;;;;;13.40;7.18;;;;;;;6.87;54.70;101166.59;5116276;28;19927;-74
2022/02/27 08:45:56;;;;;;;11.48;5.90;;;;;;;7.07;54.26;101169.91;5116374;28;20378;-74
2022/02/27 08:48:28;;;;;;;13.90;6.85;;;;;;;6.90;54.27;101168.41;5115811;28;20048;-73
2022/02/27 08:50:57;;;;;;;15.98;6.97;;;;;;;7.05;55.11;101163.91;5115988;28;20069;-74
2022/02/27 08:53:26;;;;;;;12.65;7.10;;;;;;;7.15;54.57;101163.44;5115821;28;20040;-74
2022/02/27 08:55:55;;;;;;;14.82;7.70;;;;;;;7.49;53.81;101163.81;5116181;28;20035;-74
2022/02/27 08:58:24;;;;;;;14.33;7.37;;;;;;;7.65;53.65;101161.03;5115738;28;20044;-74
2022/02/27 09:00:53;;;;;;;16.77;7.43;;;;;;;7.71;52.98;101140.91;5115817;28;20862;-74
2022/02/27 09:03:26;;;;;;;15.18;7.45;;;;;;;7.88;53.00;101162.66;5116025;28;20325;-74
2022/02/27 09:05:56;;;;;;;13.98;7.20;;;;;;;7.92;52.08;101166.16;5115744;28;20516;-75
2022/02/27 09:08:25;;;;;;;12.97;7.73;;;;;;;7.98;52.72;101162.16;5115433;28;20057;-74
2022/02/27 09:10:54;;;;;;;13.70;7.43;;;;;;;8.35;52.66;101158.31;5114581;28;20111;-74
2022/02/27 09:13:23;;;;;;;15.73;7.75;;;;;;;8.29;51.49;101155.56;5115718;28;20485;-74
2022/02/27 09:15:51;;;;;;;17.07;8.30;;;;;;;8.46;52.13;101159.50;5115618;28;20485;-73
2022/02/27 09:18:21;;;;;;;15.73;8.00;;;;;;;8.59;50.96;101159.09;5115656;28;20043;-74
2022/02/27 09:20:52;;;;;;;12.90;7.15;;;;;;;8.66;49.92;101155.91;5115568;28;20516;-74
2022/02/27 09:23:20;;;;;;;13.00;6.68;;;;;;;8.81;49.03;101156.34;5115303;28;20067;-73
2022/02/27 09:25:51;;;;;;;16.27;8.23;;;;;;;9.10;49.13;101145.34;5114315;28;20055;-74
2022/02/27 09:28:40;;;;;;;14.77;7.77;;;;;;;9.04;48.98;101155.38;5114980;28;20036;-74
2022/02/27 09:31:09;;;;;;;;;;;;;;;9.21;49.28;101143.94;5114337;28;20056;-74
2022/02/27 09:33:38;;;;;;;11.82;5.95;;;;;;;9.52;48.98;101144.81;5115232;28;19920;-74
2022/02/27 09:36:10;;;;;;;11.32;6.18;;;;;;;9.50;48.42;101146.47;5115059;28;20067;-74
2022/02/27 09:38:40;;;;;;;13.00;6.93;;;;;;;9.41;48.08;101127.53;5115238;28;20047;-74
2022/02/27 09:41:09;;;;;;;12.18;6.65;;;;;;;9.38;47.53;101145.28;5115182;28;20050;-75
2022/02/27 09:43:39;;;;;;;9.73;4.97;;;;;;;9.31;45.81;101139.97;5114902;28;20077;-74
2022/02/27 09:46:08;;;;;;;12.27;6.30;;;;;;;9.76;46.50;101135.25;5114856;28;20283;-74
2022/02/27 09:48:37;;;;;;;12.30;6.20;;;;;;;9.71;45.71;101108.78;5113550;28;20047;-74
2022/02/27 09:51:06;;;;;;;10.63;5.95;;;;;;;9.84;45.57;101118.44;5114686;28;20569;-74
2022/02/27 09:53:37;;;;;;;13.20;7.00;;;;;;;10.14;44.59;101119.25;5115573;28;20054;-75
2022/02/27 09:56:06;;;;;;;11.52;6.00;;;;;;;10.51;44.57;101116.72;5114714;28;20055;-74
2022/02/27 09:58:35;;;;;;;8.57;5.00;;;;;;;10.64;43.78;101118.72;5114862;28;20046;-74
2022/02/27 10:01:04;;;;;;;12.07;5.78;;;;;;;10.76;43.01;101108.78;5113467;28;20044;-75
2022/02/27 10:03:34;;;;;;;12.70;6.15;;;;;;;10.83;42.75;101111.44;5114802;28;20044;-74
2022/02/27 10:06:06;;;;;;;10.73;5.72;;;;;;;10.95;42.04;101112.59;5114536;28;20151;-74
2022/02/27 10:08:41;;;;;;;9.55;5.28;;;;;;;10.78;40.98;101107.13;5114414;28;20044;-75
2022/02/27 10:11:13;;;;;;;10.38;5.38;;;;;;;10.33;40.46;101106.09;5114413;28;20043;-74
2022/02/27 10:13:44;;;;;;;9.38;5.45;;;;;;;9.68;40.43;101050.06;5114466;28;20055;-75
2022/02/27 10:16:15;;;;;;;8.43;4.07;;;;;;;9.82;40.22;101107.34;5114608;28;20401;-74
2022/02/27 10:18:46;;;;;;;8.65;4.32;;;;;;;10.39;40.76;101106.22;5114382;28;20048;-74
2022/02/27 10:21:23;;;;;;;8.77;4.30;;;;;;;10.70;39.49;101098.41;5113948;28;20043;-74
2022/02/27 10:24:15;;;;;;;9.13;4.82;;;;;;;10.43;38.84;101082.53;5114409;28;20103;-74
2022/02/27 10:26:48;;;;;;;10.45;4.53;;;;;;;10.43;39.22;101102.94;5114554;28;20039;-74
2022/02/27 10:29:18;;;;;;;9.02;4.53;;;;;;;10.53;39.01;101099.75;5114284;28;20441;-74
2022/02/27 10:31:50;;;;;;;9.90;4.93;;;;;;;10.77;38.89;101095.16;5114312;28;20152;-74
2022/02/27 10:34:21;;;;;;;8.88;4.57;;;;;;;10.96;38.71;101093.00;5114367;28;20047;-75
2022/02/27 10:36:56;;;;;;;10.27;3.97;;;;;;;10.91;37.92;101086.94;5114373;28;20050;-75
2022/02/27 10:39:38;;;;;;;9.43;4.10;;;;;;;11.20;37.73;101085.84;5114069;28;20043;-74
2022/02/27 10:42:14;;;;;;;9.82;4.38;;;;;;;11.65;37.50;101081.56;5114043;28;20044;-74
2022/02/27 10:44:45;;;;;;;8.48;4.50;;;;;;;11.44;36.91;101081.19;5114372;28;20130;-75
2022/02/27 10:47:17;;;;;;;9.20;4.07;;;;;;;11.56;36.68;101071.16;5112440;28;20055;-74
2022/02/27 10:49:47;;;;;;;7.90;3.50;;;;;;;11.41;36.60;101076.00;5113733;28;20089;-74
2022/02/27 10:52:23;;;;;;;5.05;2.92;;;;;;;10.92;33.77;101068.25;5112851;28;20046;-74
2022/02/27 10:54:55;;;;;;;7.82;3.47;;;;;;;11.16;34.67;101064.44;5114160;28;20044;-74
2022/02/27 10:57:34;;;;;;;5.50;2.65;;;;;;;11.32;33.42;101055.41;5114249;28;20128;-74
2022/02/27 11:00:13;;;;;;;6.22;3.50;;;;;;;11.36;33.72;101050.38;5114016;28;20071;-74
2022/02/27 11:02:42;;;;;;;5.90;3.15;;;;;;;11.56;34.59;101060.94;5112906;28;20073;-74
2022/02/27 11:05:14;;;;;;;7.55;3.20;;;;;;;11.62;33.32;101040.56;5114146;28;20500;-74
2022/02/27 11:07:44;;;;;;;8.13;3.35;;;;;;;11.32;32.05;101046.03;5113744;28;20051;-74
2022/02/27 11:10:19;;;;;;;6.40;2.78;;;;;;;11.40;31.84;101048.69;5113741;28;20131;-74
2022/02/27 11:12:48;;;;;;;6.10;2.55;;;;;;;11.70;32.13;101049.28;5113648;28;20084;-74
2022/02/27 11:15:23;;;;;;;7.25;3.38;;;;;;;11.71;31.59;101025.41;5113750;28;20485;-74
2022/02/27 11:17:52;;;;;;;5.97;2.90;;;;;;;11.75;31.66;101031.44;5113890;28;20051;-74
2022/02/27 11:20:22;;;;;;;6.33;2.93;;;;;;;11.65;31.56;101032.97;5113544;28;20117;-74
2022/02/27 11:22:53;;;;;;;6.97;3.00;;;;;;;11.86;31.08;101025.66;5113940;28;20463;-74
2022/02/27 11:25:25;;;;;;;5.63;3.08;;;;;;;12.00;30.91;101019.06;5113604;28;20409;-74
2022/02/27 11:27:57;;;;;;;5.70;2.70;;;;;;;12.03;30.81;101018.25;5113763;28;20044;-74
2022/02/27 11:30:30;;;;;;;5.32;2.80;;;;;;;11.94;30.86;100995.94;5113410;28;20046;-75
2022/02/27 11:33:05;;;;;;;8.98;3.90;;;;;;;11.80;32.60;101015.34;5113508;28;20044;-74
2022/02/27 11:35:43;;;;;;;6.95;3.53;;;;;;;12.02;32.86;101017.38;5117480;28;20043;-75
2022/02/27 11:38:13;;;;;;;5.95;3.10;;;;;;;12.27;32.65;101002.38;5117301;28;20044;-75
2022/02/27 11:40:47;;;;;;;8.35;3.47;;;;;;;12.79;32.98;101009.84;5118774;27;20563;-74
2022/02/27 11:43:39;;;;;;;8.57;4.05;;;;;;;13.06;32.92;100989.69;5115250;27;20059;-75
2022/02/27 11:46:10;;;;;;;9.77;3.90;;;;;;;13.04;32.13;100991.38;5114334;27;20036;-75